createdAt,value
2022-11-07T00:00:18.647Z,50.63
2022-11-07T00:01:22.833Z,53.01
2022-11-07T00:02:25.011Z,47.10
2022-11-07T00:03:26.943Z,50.76
2022-11-07T00:04:30.760Z,51.42
2022-11-07T00:05:32.680Z,54.97
2022-11-07T00:06:34.640Z,58.14
2022-11-07T00:07:36.702Z,54.60
2022-11-07T00:08:39.983Z,57.88
2022-11-07T00:09:41.872Z,53.60
2022-11-07T00:10:43.871Z,56.31
2022-11-07T00:11:46.200Z,52.79
2022-11-07T00:12:48.096Z,46.94
2022-11-07T00:13:50.038Z,57.31
2022-11-07T00:14:51.930Z,54.19
2022-11-07T00:15:56.377Z,52.49
2022-11-07T00:16:58.399Z,56.40
2022-11-07T00:18:00.287Z,53.13
2022-11-07T00:19:02.271Z,54.00
2022-11-07T00:20:05.813Z,60.93
2022-11-07T00:21:09.331Z,50.04
2022-11-07T00:22:11.209Z,53.49
2022-11-07T00:23:13.330Z,56.26
2022-11-07T00:24:17.187Z,53.78
2022-11-07T00:25:19.110Z,50.34
2022-11-07T00:26:21.104Z,52.94
2022-11-07T00:27:23.122Z,50.57
2022-11-07T00:28:25.046Z,52.20
2022-11-07T00:29:26.927Z,49.38
2022-11-07T00:30:28.888Z,51.44
2022-11-07T00:31:31.963Z,49.87
2022-11-07T00:32:33.823Z,53.64
2022-11-07T00:33:37.113Z,54.89
2022-11-07T00:34:38.995Z,55.95
2022-11-07T00:35:41.300Z,49.81
2022-11-07T00:36:43.317Z,56.67
2022-11-07T00:37:45.200Z,55.73
2022-11-07T00:38:47.796Z,49.99
2022-11-07T00:39:49.683Z,53.64
2022-11-07T00:41:00.840Z,53.79
2022-11-07T00:42:03.478Z,50.03
2022-11-07T00:43:05.573Z,50.14
2022-11-07T00:44:07.425Z,58.13
2022-11-07T00:45:10.581Z,47.63
2022-11-07T00:46:15.795Z,54.40
2022-11-07T00:47:17.697Z,54.41
2022-11-07T00:48:19.560Z,54.63
2022-11-07T00:49:21.422Z,49.61
2022-11-07T00:50:23.382Z,50.61
2022-11-07T00:51:27.770Z,53.10
2022-11-07T00:52:30.979Z,50.03
2022-11-07T00:53:32.964Z,50.89
2022-11-07T00:54:34.856Z,49.07
2022-11-07T00:55:36.714Z,58.75
2022-11-07T00:56:38.692Z,48.36
2022-11-07T00:57:40.559Z,57.63
2022-11-07T00:58:43.229Z,51.65
2022-11-07T00:59:45.113Z,49.09
2022-11-07T01:00:47.186Z,55.89
2022-11-07T01:01:49.201Z,52.17
2022-11-07T01:02:51.402Z,49.28
2022-11-07T01:03:54.525Z,48.14
2022-11-07T01:04:56.413Z,51.31
2022-11-07T01:06:00.969Z,52.61
2022-11-07T01:07:04.270Z,51.18
2022-11-07T01:08:06.353Z,53.81
2022-11-07T01:09:11.219Z,54.20
2022-11-07T01:10:13.882Z,51.04
2022-11-07T01:11:15.748Z,52.89
2022-11-07T01:12:17.618Z,54.37
2022-11-07T01:13:20.409Z,57.39
2022-11-07T01:14:22.689Z,48.26
2022-11-07T01:15:24.599Z,53.41
2022-11-07T01:16:28.171Z,57.03
2022-11-07T01:17:30.063Z,48.74
2022-11-07T01:18:32.032Z,53.39
2022-11-07T01:19:33.891Z,48.65
2022-11-07T01:20:36.063Z,53.30
2022-11-07T01:21:41.223Z,49.66
2022-11-07T01:22:43.125Z,56.57
2022-11-07T01:23:45.031Z,54.35
2022-11-07T01:24:46.923Z,52.37
2022-11-07T01:25:48.995Z,48.93
2022-11-07T01:26:51.827Z,51.23
2022-11-07T01:27:53.864Z,48.72
2022-11-07T01:28:56.246Z,51.95
2022-11-07T01:29:58.111Z,53.05
2022-11-07T01:31:03.484Z,51.08
2022-11-07T01:32:05.405Z,49.90
2022-11-07T01:33:08.753Z,55.31
2022-11-07T01:34:10.631Z,48.78
2022-11-07T01:35:12.519Z,47.11
2022-11-07T01:36:17.384Z,52.09
2022-11-07T01:37:19.319Z,48.21
2022-11-07T01:38:21.183Z,57.41
2022-11-07T01:39:23.056Z,50.06
2022-11-07T01:40:25.637Z,48.19
2022-11-07T01:41:30.689Z,51.38
2022-11-07T01:42:32.880Z,48.36
2022-11-07T01:43:45.326Z,47.65
2022-11-07T01:44:53.160Z,48.89
2022-11-07T01:45:55.209Z,48.08
2022-11-07T01:46:59.481Z,47.83
2022-11-07T01:48:02.872Z,53.14
2022-11-07T01:49:14.762Z,56.31
2022-11-07T01:50:18.017Z,47.62
2022-11-07T01:51:22.600Z,43.80
2022-11-07T01:54:46.699Z,46.73
2022-11-07T01:55:48.633Z,46.41
2022-11-07T01:56:53.043Z,49.80
2022-11-07T01:57:58.711Z,50.16
2022-11-07T01:59:03.236Z,48.88
2022-11-07T02:00:08.978Z,49.81
2022-11-07T02:01:11.732Z,45.74
2022-11-07T02:02:14.715Z,51.66
2022-11-07T02:03:19.627Z,47.41
2022-11-07T02:04:24.639Z,47.85
2022-11-07T02:05:36.385Z,47.85
2022-11-07T02:06:44.935Z,47.52
2022-11-07T02:07:47.037Z,48.96
2022-11-07T02:08:51.489Z,44.34
2022-11-07T02:09:54.812Z,51.92
2022-11-07T02:10:57.445Z,48.74
2022-11-07T02:11:59.315Z,53.15
2022-11-07T02:13:02.518Z,44.73
2022-11-07T02:14:05.839Z,46.44
2022-11-07T02:15:09.922Z,45.79
2022-11-07T02:16:12.120Z,53.90
2022-11-07T02:17:15.786Z,47.37
2022-11-07T02:18:18.156Z,47.61
2022-11-07T02:21:57.830Z,43.57
2022-11-07T02:23:18.969Z,42.58
2022-11-07T02:24:30.789Z,56.91
2022-11-07T02:25:32.694Z,45.78
2022-11-07T02:26:37.659Z,48.02
2022-11-07T02:27:42.811Z,44.77
2022-11-07T02:28:47.200Z,44.39
2022-11-07T02:29:52.858Z,46.72
2022-11-07T02:30:54.979Z,47.15
2022-11-07T02:32:05.880Z,43.79
2022-11-07T02:33:22.789Z,49.06
2022-11-07T02:34:24.699Z,46.63
2022-11-07T02:35:36.156Z,46.45
2022-11-07T02:36:38.250Z,49.04
2022-11-07T02:37:40.117Z,45.09
2022-11-07T02:38:43.580Z,42.53
2022-11-07T02:39:45.828Z,48.68
2022-11-07T02:40:54.919Z,45.63
2022-11-07T02:42:01.185Z,47.68
2022-11-07T02:43:05.133Z,46.74
2022-11-07T02:44:10.287Z,44.74
2022-11-07T02:45:19.386Z,45.87
2022-11-07T02:46:22.661Z,43.06
2022-11-07T02:47:24.581Z,47.66
2022-11-07T02:48:34.807Z,44.75
2022-11-07T02:49:36.811Z,48.00
2022-11-07T02:50:40.511Z,45.63
2022-11-07T02:51:42.397Z,48.35
2022-11-07T02:52:44.316Z,49.16
2022-11-07T02:53:46.184Z,40.81
2022-11-07T02:54:48.040Z,44.52
2022-11-07T02:55:50.204Z,44.73
2022-11-07T02:56:52.191Z,45.15
2022-11-07T02:57:54.122Z,42.65
2022-11-07T02:58:55.990Z,44.84
2022-11-07T02:59:57.850Z,47.91
2022-11-07T03:00:59.924Z,44.16
2022-11-07T03:02:02.546Z,41.17
2022-11-07T03:03:04.622Z,43.17
2022-11-07T03:04:06.575Z,45.22
2022-11-07T03:05:08.728Z,42.15
2022-11-07T03:06:14.104Z,41.11
2022-11-07T03:07:16.016Z,40.90
2022-11-07T03:08:17.906Z,43.51
2022-11-07T03:09:19.760Z,47.19
2022-11-07T03:10:21.709Z,40.55
2022-11-07T03:11:23.674Z,43.08
2022-11-07T03:12:25.561Z,45.79
2022-11-07T03:13:27.435Z,39.13
2022-11-07T03:14:29.320Z,47.39
2022-11-07T03:15:31.246Z,47.20
2022-11-07T03:16:33.223Z,40.15
2022-11-07T03:17:35.481Z,43.30
2022-11-07T03:18:37.564Z,42.63
2022-11-07T03:19:39.427Z,43.86
2022-11-07T03:20:41.449Z,40.43
2022-11-07T03:21:43.312Z,49.53
2022-11-07T03:22:46.883Z,43.76
2022-11-07T03:23:48.806Z,45.61
2022-11-07T03:24:50.702Z,42.08
2022-11-07T03:25:52.568Z,39.53
2022-11-07T03:26:54.671Z,43.12
2022-11-07T03:27:56.531Z,41.21
2022-11-07T03:28:58.448Z,46.23
2022-11-07T03:30:00.538Z,40.21
2022-11-07T03:31:03.820Z,45.52
2022-11-07T03:32:06.225Z,45.61
2022-11-07T03:33:08.774Z,41.45
2022-11-07T03:34:10.812Z,41.25
2022-11-07T03:35:13.264Z,37.31
2022-11-07T03:36:15.731Z,42.43
2022-11-07T03:37:17.753Z,41.62
2022-11-07T03:38:20.367Z,41.02
2022-11-07T03:39:25.824Z,41.83
2022-11-07T03:40:26.149Z,47.19
2022-11-07T03:41:28.628Z,39.56
2022-11-07T03:42:30.626Z,43.69
2022-11-07T03:43:32.593Z,41.47
2022-11-07T03:44:36.688Z,40.92
2022-11-07T03:45:38.586Z,39.92
2022-11-07T03:46:40.593Z,41.22
2022-11-07T03:47:44.558Z,41.79
2022-11-07T03:48:46.526Z,42.76
2022-11-07T03:49:48.394Z,36.55
2022-11-07T03:50:50.358Z,41.45
2022-11-07T03:51:52.245Z,40.67
2022-11-07T03:52:54.111Z,41.89
2022-11-07T03:53:56.378Z,39.30
2022-11-07T06:30:24.474Z,39.79
2022-11-07T06:31:26.344Z,35.27
2022-11-07T06:32:29.255Z,39.48
2022-11-07T06:33:32.059Z,37.86
2022-11-07T06:34:34.425Z,36.93
2022-11-07T06:35:37.006Z,35.18
2022-11-07T06:36:39.021Z,37.01
2022-11-07T06:37:40.980Z,34.13
2022-11-07T06:38:42.840Z,30.85
2022-11-07T06:39:44.890Z,33.89
2022-11-07T06:40:46.964Z,32.93
2022-11-07T06:41:49.676Z,31.59
2022-11-07T06:42:51.542Z,33.83
2022-11-07T06:43:55.445Z,32.91
2022-11-07T06:44:57.479Z,31.39
2022-11-07T06:46:02.164Z,33.29
2022-11-07T06:47:04.237Z,33.14
2022-11-07T06:48:07.143Z,33.73
2022-11-07T06:49:09.802Z,32.40
2022-11-07T06:50:12.926Z,32.53
2022-11-07T06:51:14.844Z,29.77
2022-11-07T06:52:17.078Z,32.49
2022-11-07T06:53:19.528Z,32.88
2022-11-07T06:54:21.824Z,32.02
2022-11-07T06:55:23.696Z,34.00
2022-11-07T06:56:25.982Z,31.20
2022-11-07T06:57:29.019Z,29.37
2022-11-07T06:58:31.272Z,31.41
2022-11-07T06:59:33.145Z,30.91
2022-11-07T07:00:37.376Z,31.01
2022-11-07T07:01:40.301Z,30.61
2022-11-07T07:02:58.106Z,30.69
2022-11-07T07:03:46.354Z,28.94
2022-11-07T07:04:48.253Z,32.81
2022-11-07T07:05:50.110Z,31.34
2022-11-07T07:06:52.169Z,28.69
2022-11-07T07:07:55.216Z,29.89
2022-11-07T07:08:57.648Z,32.64
2022-11-07T07:09:59.639Z,31.09
2022-11-07T07:11:04.950Z,32.35
2022-11-07T07:12:10.242Z,30.49
2022-11-07T07:13:14.030Z,30.57
2022-11-07T07:14:16.963Z,29.65
2022-11-07T07:15:19.160Z,29.01
2022-11-07T07:16:21.227Z,31.29
2022-11-07T07:17:23.074Z,34.59
2022-11-07T07:18:26.378Z,27.82
2022-11-07T07:19:28.272Z,29.20
2022-11-07T07:20:30.545Z,31.85
2022-11-07T07:21:33.229Z,30.73
2022-11-07T07:22:35.090Z,28.48
2022-11-07T07:23:37.644Z,29.88
2022-11-07T07:24:39.750Z,27.53
2022-11-07T07:25:41.739Z,29.52
2022-11-07T07:26:43.715Z,29.21
2022-11-07T07:27:45.608Z,31.07
2022-11-07T07:28:47.634Z,30.32
2022-11-07T07:29:49.701Z,29.67
2022-11-07T07:30:52.421Z,31.97
2022-11-07T07:31:54.295Z,28.70
2022-11-07T07:32:56.183Z,29.05
2022-11-07T07:33:58.446Z,30.73
2022-11-07T07:35:02.132Z,29.21
2022-11-07T07:36:07.469Z,28.03
2022-11-07T07:37:09.404Z,28.16
2022-11-07T07:38:12.188Z,27.32
2022-11-07T07:39:14.563Z,29.82
2022-11-07T07:40:18.084Z,30.25
2022-11-07T07:41:20.548Z,30.49
2022-11-07T07:42:22.446Z,33.21
2022-11-07T07:43:25.034Z,29.77
2022-11-07T07:44:26.924Z,30.03
2022-11-07T07:45:28.847Z,35.68
2022-11-07T07:46:30.828Z,31.86
2022-11-07T07:47:32.701Z,28.41
2022-11-07T07:48:35.594Z,29.11
2022-11-07T07:49:37.661Z,33.86
2022-11-07T07:50:40.136Z,30.94
2022-11-07T07:51:42.010Z,31.40
2022-11-07T07:52:43.892Z,28.74
2022-11-07T07:53:45.874Z,32.69
2022-11-07T07:54:47.765Z,29.75
2022-11-07T07:55:49.990Z,29.47
2022-11-07T07:56:52.651Z,31.12
2022-11-07T07:57:54.544Z,28.57
2022-11-07T07:58:56.427Z,31.89
2022-11-07T07:59:58.306Z,29.89
2022-11-07T08:01:00.690Z,32.71
2022-11-07T08:02:02.789Z,29.67
2022-11-07T08:03:08.259Z,26.79
2022-11-07T08:04:10.171Z,27.09
2022-11-07T08:05:13.580Z,33.73
2022-11-07T08:06:15.570Z,32.51
2022-11-07T08:07:17.466Z,31.42
2022-11-07T08:08:19.527Z,31.33
2022-11-07T08:09:22.128Z,32.09
2022-11-07T08:11:27.901Z,29.10
2022-11-07T08:12:29.823Z,32.02
2022-11-07T08:13:34.656Z,29.95
2022-11-07T08:14:36.673Z,36.09
2022-11-07T08:15:39.362Z,39.35
2022-11-07T08:16:41.491Z,29.78
2022-11-07T08:17:45.169Z,33.81
2022-11-07T08:18:47.317Z,29.29
2022-11-07T08:19:49.302Z,30.32
2022-11-07T08:20:53.735Z,30.68
2022-11-07T08:21:55.681Z,31.36
2022-11-07T08:23:02.829Z,26.27
2022-11-07T08:24:06.198Z,30.29
2022-11-07T08:25:10.377Z,33.51
2022-11-07T08:26:12.443Z,30.47
2022-11-07T08:27:14.320Z,30.62
2022-11-07T08:28:16.299Z,27.53
2022-11-07T08:29:18.456Z,29.21
2022-11-07T08:30:20.761Z,28.19
2022-11-07T08:31:22.685Z,28.99
2022-11-07T08:32:27.060Z,28.33
2022-11-07T08:33:29.536Z,30.94
2022-11-07T08:34:31.591Z,28.00
2022-11-07T08:35:38.118Z,29.19
2022-11-07T08:36:37.365Z,29.12
2022-11-07T08:37:39.261Z,31.27
2022-11-07T08:38:41.579Z,32.21
2022-11-07T08:39:43.492Z,31.65
2022-11-07T08:40:45.537Z,35.04
2022-11-07T08:41:47.459Z,35.47
2022-11-07T08:42:49.551Z,34.03
2022-11-07T08:43:51.451Z,33.64
2022-11-07T08:44:53.349Z,29.87
2022-11-07T08:45:56.272Z,30.72
2022-11-07T08:46:58.281Z,32.91
2022-11-07T08:48:00.286Z,28.51
2022-11-07T08:49:02.300Z,34.75
2022-11-07T08:50:05.829Z,29.01
2022-11-07T08:51:08.711Z,29.15
2022-11-07T08:52:10.646Z,30.92
2022-11-07T08:53:12.507Z,32.67
2022-11-07T08:54:14.621Z,30.60
2022-11-07T08:55:16.664Z,28.94
2022-11-07T08:56:18.646Z,30.25
2022-11-07T08:57:20.538Z,27.17
2022-11-07T08:58:27.341Z,28.88
2022-11-07T08:59:27.123Z,27.99
2022-11-07T09:00:29.417Z,27.80
2022-11-07T09:01:31.462Z,31.51
2022-11-07T09:03:46.041Z,29.76
2022-11-07T09:04:42.861Z,29.59
2022-11-07T09:05:44.945Z,28.07
2022-11-07T09:06:46.899Z,29.93
2022-11-07T09:07:48.767Z,28.41
2022-11-07T09:08:50.629Z,29.23
2022-11-07T09:09:52.495Z,28.25
2022-11-07T09:10:54.469Z,29.31
2022-11-07T09:11:56.330Z,25.22
2022-11-07T09:12:58.184Z,30.89
2022-11-07T09:14:00.057Z,28.91
2022-11-07T09:15:02.333Z,31.33
2022-11-07T09:16:05.030Z,30.45
2022-11-07T09:17:07.360Z,28.33
2022-11-07T09:18:09.247Z,30.35
2022-11-07T09:19:11.340Z,27.97
2022-11-07T09:20:13.713Z,29.53
2022-11-07T09:21:21.782Z,29.75
2022-11-07T09:22:20.082Z,29.19
2022-11-07T09:23:22.012Z,25.81
2022-11-07T09:24:23.883Z,24.49
2022-11-07T09:25:26.280Z,25.63
2022-11-07T09:26:28.278Z,29.49
2022-11-07T09:27:30.123Z,25.59
2022-11-07T09:28:32.423Z,27.96
2022-11-07T09:29:34.286Z,24.92
2022-11-07T09:30:36.821Z,29.84
2022-11-07T09:31:38.707Z,26.83
2022-11-07T09:32:45.270Z,23.29
2022-11-07T09:33:44.378Z,25.67
2022-11-07T09:34:49.358Z,27.61
2022-11-07T09:35:50.469Z,25.12
2022-11-07T09:36:52.463Z,28.08
2022-11-07T09:37:54.318Z,25.34
2022-11-07T09:38:56.245Z,27.78
2022-11-07T09:39:58.179Z,29.83
2022-11-07T09:41:22.174Z,27.07
2022-11-07T09:42:37.415Z,26.15
2022-11-07T09:44:18.065Z,26.64
2022-11-07T09:45:20.797Z,30.64
2022-11-07T09:46:32.016Z,26.56
2022-11-07T09:47:49.421Z,26.66
2022-11-07T09:49:00.838Z,29.83
2022-11-07T09:51:10.459Z,24.94
2022-11-07T09:52:36.152Z,27.14
2022-11-07T09:53:41.853Z,27.01
2022-11-07T09:54:47.540Z,25.94
2022-11-07T09:55:55.680Z,28.73
2022-11-07T09:56:58.718Z,28.51
2022-11-07T09:58:04.175Z,27.87
2022-11-07T09:59:14.113Z,24.68
2022-11-07T10:00:19.502Z,26.87
2022-11-07T10:01:22.167Z,25.44
2022-11-07T10:02:33.967Z,29.41
2022-11-07T10:03:37.840Z,27.29
2022-11-07T13:53:01.642Z,29.32
2022-11-07T13:54:36.107Z,24.83
2022-11-07T13:55:47.681Z,26.47
2022-11-07T13:57:08.410Z,24.74
2022-11-07T13:58:14.075Z,23.64
2022-11-07T13:59:36.434Z,22.88
2022-11-07T14:00:36.912Z,28.14
2022-11-07T14:01:41.968Z,22.97
2022-11-07T14:02:56.364Z,27.00
2022-11-07T14:03:58.390Z,27.46
2022-11-07T14:05:20.512Z,23.57
2022-11-07T14:06:14.526Z,24.83
2022-11-07T14:07:20.269Z,23.04
2022-11-07T14:08:26.292Z,26.49
2022-11-07T14:09:30.396Z,21.71
2022-11-07T14:10:39.026Z,22.58
2022-11-07T14:11:41.236Z,21.03
2022-11-07T14:12:43.618Z,24.50
2022-11-07T14:13:52.365Z,24.17
2022-11-07T14:14:56.492Z,20.99
2022-11-07T14:16:02.010Z,21.89
2022-11-07T14:17:04.032Z,21.53
2022-11-07T14:18:06.316Z,22.67
2022-11-07T14:19:17.018Z,21.31
2022-11-07T14:20:19.710Z,22.89
2022-11-07T14:23:41.453Z,21.13
2022-11-07T14:24:47.156Z,21.60
2022-11-07T14:26:18.662Z,21.48
2022-11-07T14:27:21.368Z,22.67
2022-11-07T14:28:24.028Z,20.69
2022-11-07T14:29:26.503Z,24.05
2022-11-07T14:30:29.996Z,22.86
2022-11-07T14:32:53.133Z,23.66
2022-11-07T14:33:58.162Z,20.67
2022-11-07T14:35:00.185Z,22.48
2022-11-07T14:36:04.925Z,24.11
2022-11-07T14:37:09.212Z,21.36
2022-11-07T14:38:20.871Z,22.92
2022-11-07T14:39:25.401Z,21.82
2022-11-07T14:40:28.219Z,21.49
2022-11-07T14:41:30.485Z,23.11
2022-11-07T14:42:32.802Z,23.53
2022-11-07T14:43:36.474Z,26.23
2022-11-07T14:44:54.419Z,22.89
2022-11-07T14:46:58.160Z,22.33
2022-11-07T14:48:00.854Z,29.19
2022-11-07T14:49:03.057Z,23.12
2022-11-07T14:50:06.717Z,22.87
2022-11-07T14:51:14.332Z,23.13
2022-11-07T14:52:20.029Z,24.86
2022-11-07T14:53:28.351Z,24.82
2022-11-07T14:54:34.101Z,23.38
2022-11-07T14:55:45.752Z,22.49
2022-11-07T14:56:51.523Z,21.84
2022-11-07T14:57:54.056Z,21.03
2022-11-07T14:58:57.229Z,22.57
2022-11-07T14:59:59.238Z,23.74
2022-11-07T15:01:11.204Z,21.59
2022-11-07T15:02:19.132Z,22.63
2022-11-07T15:03:24.142Z,23.17
2022-11-07T15:04:29.826Z,22.82
2022-11-07T15:05:41.820Z,25.29
2022-11-07T15:06:44.965Z,22.52
2022-11-07T15:07:48.684Z,23.09
2022-11-07T15:09:00.034Z,22.39
2022-11-07T15:10:27.142Z,21.57
2022-11-07T15:11:41.231Z,24.53
2022-11-07T15:12:51.648Z,24.03
2022-11-07T15:13:54.056Z,24.54
2022-11-07T15:15:05.830Z,25.90
2022-11-07T15:16:16.826Z,25.11
2022-11-07T15:17:22.907Z,20.05
2022-11-07T15:18:26.755Z,23.25
2022-11-07T15:19:29.266Z,24.34
2022-11-07T15:20:37.067Z,22.55
2022-11-07T15:21:42.938Z,26.43
2022-11-07T15:22:46.042Z,23.54
2022-11-07T15:23:47.950Z,22.39
2022-11-07T15:24:49.816Z,23.39
2022-11-07T15:26:00.685Z,26.84
2022-11-07T15:27:06.490Z,23.04
2022-11-07T15:29:35.689Z,27.03
2022-11-07T15:30:38.892Z,20.86
2022-11-07T15:31:46.417Z,22.14
2022-11-07T15:32:48.335Z,22.98
2022-11-07T15:33:52.064Z,21.13
2022-11-07T15:35:23.104Z,25.98
2022-11-07T15:36:01.516Z,24.16
2022-11-07T15:37:20.049Z,23.59
2022-11-07T15:38:25.484Z,24.72
2022-11-07T15:39:27.405Z,22.93
2022-11-07T15:40:29.758Z,23.81
2022-11-07T15:41:31.636Z,25.82
2022-11-07T15:42:34.164Z,28.62
2022-11-07T15:43:36.058Z,30.83
2022-11-07T15:44:38.055Z,27.79
2022-11-07T15:46:01.647Z,25.20
2022-11-07T15:47:05.070Z,23.34
2022-11-07T15:48:10.160Z,23.98
2022-11-07T15:49:12.146Z,27.08
2022-11-07T15:50:21.295Z,22.81
2022-11-07T15:51:23.460Z,22.23
2022-11-07T15:52:25.342Z,24.87
2022-11-07T15:53:29.473Z,25.50
2022-11-07T15:54:31.367Z,24.78
2022-11-07T15:55:33.237Z,25.52
2022-11-07T15:56:35.196Z,28.23
2022-11-07T15:57:37.088Z,23.97
2022-11-07T15:58:39.423Z,25.17
2022-11-07T15:59:42.961Z,22.65
2022-11-07T16:00:44.976Z,21.34
2022-11-07T16:01:48.066Z,23.97
2022-11-07T16:02:51.214Z,24.07
2022-11-07T16:03:54.089Z,24.14
2022-11-07T16:04:55.948Z,24.64
2022-11-07T16:05:59.825Z,23.63
2022-11-07T16:07:01.966Z,26.35
2022-11-07T16:08:04.948Z,24.82
2022-11-07T16:09:16.586Z,23.59
2022-11-07T16:10:26.181Z,28.38
2022-11-07T16:11:28.112Z,24.27
2022-11-07T16:12:30.116Z,30.68
2022-11-07T16:13:31.990Z,27.40
2022-11-07T16:14:43.874Z,28.57
2022-11-07T16:15:41.953Z,25.62
2022-11-07T16:16:46.578Z,24.93
2022-11-07T16:17:49.221Z,24.52
2022-11-07T16:18:53.049Z,26.19
2022-11-07T16:19:58.804Z,30.74
2022-11-07T16:20:58.852Z,27.16
2022-11-07T16:22:02.786Z,27.27
2022-11-07T16:23:05.572Z,25.33
2022-11-07T16:24:08.658Z,25.17
2022-11-07T16:25:21.584Z,24.92
2022-11-07T16:26:27.934Z,26.64
2022-11-07T16:27:29.888Z,26.76
2022-11-07T16:28:33.809Z,25.83
2022-11-07T16:29:35.831Z,25.28
2022-11-07T16:30:37.900Z,22.79
2022-11-07T16:31:40.659Z,22.43
2022-11-07T16:32:42.756Z,23.85
2022-11-07T16:33:46.922Z,24.21
2022-11-07T16:34:48.828Z,21.97
2022-11-07T16:35:57.682Z,26.03
2022-11-07T16:36:59.817Z,29.12
2022-11-07T16:38:03.845Z,23.71
2022-11-07T16:39:07.225Z,26.19
2022-11-07T16:42:27.265Z,25.01
2022-11-07T16:43:29.153Z,23.72
2022-11-07T16:44:31.145Z,24.29
2022-11-07T16:45:35.560Z,23.14
2022-11-07T16:46:37.583Z,23.17
2022-11-07T16:47:39.438Z,21.59
2022-11-07T16:48:42.240Z,23.29
2022-11-07T16:51:05.658Z,25.77
2022-11-07T16:52:18.583Z,23.30
2022-11-07T16:53:21.761Z,24.18
2022-11-07T16:54:24.842Z,23.27
2022-11-07T16:55:26.722Z,24.57
2022-11-07T16:56:30.937Z,30.05
2022-11-07T16:57:35.650Z,23.56
2022-11-07T16:58:38.477Z,23.96
2022-11-07T16:59:41.274Z,20.97
2022-11-07T17:00:43.348Z,22.81
2022-11-07T17:01:45.661Z,26.70
2022-11-07T17:02:48.778Z,23.48
2022-11-07T17:03:51.826Z,23.79
2022-11-07T17:04:53.994Z,25.06
2022-11-07T17:05:58.789Z,22.81
2022-11-07T17:07:00.834Z,25.02
2022-11-07T17:08:03.422Z,28.21
2022-11-07T17:09:12.129Z,25.71
2022-11-07T17:10:14.127Z,26.27
2022-11-07T17:11:17.172Z,25.79
2022-11-07T17:12:22.327Z,21.87
2022-11-07T17:13:24.337Z,26.28
2022-11-07T17:14:26.289Z,30.18
2022-11-07T17:15:28.663Z,25.17
2022-11-07T17:16:31.307Z,26.89
2022-11-07T17:17:33.207Z,26.38
2022-11-07T17:18:35.067Z,29.81
2022-11-07T17:19:36.917Z,24.25
2022-11-07T17:20:51.019Z,22.98
2022-11-07T17:21:42.698Z,26.55
2022-11-07T17:22:44.586Z,28.71
2022-11-07T17:23:46.551Z,25.66
2022-11-07T17:24:48.414Z,25.65
2022-11-07T17:25:53.053Z,24.49
2022-11-07T17:26:55.852Z,23.21
2022-11-07T17:27:57.745Z,26.82
2022-11-07T17:28:59.900Z,25.85
2022-11-07T17:30:05.908Z,26.33
2022-11-07T17:31:05.685Z,25.00
2022-11-07T17:32:07.575Z,27.60
2022-11-07T17:33:09.427Z,23.05
2022-11-07T17:34:11.334Z,24.11
2022-11-07T17:36:36.554Z,24.92
2022-11-07T17:37:35.547Z,27.97
2022-11-07T17:38:37.570Z,25.77
2022-11-07T17:39:39.458Z,25.54
2022-11-07T17:40:41.435Z,26.37
2022-11-07T17:41:46.293Z,25.67
2022-11-07T17:42:48.192Z,27.07
2022-11-07T17:43:50.769Z,28.81
2022-11-07T17:44:53.002Z,27.53
2022-11-07T17:45:54.868Z,25.93
2022-11-07T17:46:57.247Z,27.08
2022-11-07T17:47:59.192Z,29.17
2022-11-07T17:49:03.904Z,29.38
2022-11-07T17:50:06.346Z,27.52
2022-11-07T17:51:10.170Z,27.48
2022-11-07T17:52:12.082Z,26.75
2022-11-07T17:53:14.386Z,28.86
2022-11-07T21:51:05.832Z,33.42
2022-11-07T21:52:07.964Z,36.37
2022-11-07T21:53:09.835Z,35.62
2022-11-07T21:54:11.736Z,32.06
2022-11-07T21:55:14.024Z,33.30
2022-11-07T21:58:32.618Z,35.80
2022-11-07T21:59:34.484Z,34.63
2022-11-07T22:00:37.145Z,38.59
2022-11-07T22:01:40.714Z,31.56
2022-11-07T22:02:42.891Z,34.30
2022-11-07T22:04:05.175Z,34.25
2022-11-07T22:04:48.949Z,37.15
2022-11-07T22:05:50.856Z,34.74
2022-11-07T22:06:53.140Z,31.14
2022-11-07T22:07:55.147Z,33.23
2022-11-07T22:08:57.122Z,31.45
2022-11-07T22:09:59.046Z,33.40
2022-11-07T22:11:01.126Z,36.84
2022-11-07T22:12:03.250Z,34.15
2022-11-07T22:13:05.122Z,32.69
2022-11-07T22:14:08.303Z,32.73
2022-11-07T22:15:10.552Z,30.88
2022-11-07T22:16:15.888Z,32.03
2022-11-07T22:17:17.927Z,34.41
2022-11-07T22:18:19.790Z,28.11
2022-11-07T22:19:21.769Z,31.06
2022-11-07T22:20:23.719Z,33.56
2022-11-07T22:21:26.074Z,33.65
2022-11-07T22:22:27.974Z,31.44
2022-11-07T22:23:31.770Z,32.27
2022-11-07T22:24:33.659Z,30.33
2022-11-07T22:25:35.714Z,32.73
2022-11-07T22:26:37.683Z,34.05
2022-11-07T22:27:39.651Z,31.60
2022-11-07T22:28:45.774Z,34.40
2022-11-07T22:29:46.537Z,33.71
2022-11-07T22:30:48.545Z,33.19
2022-11-07T22:31:50.400Z,32.02
2022-11-07T22:32:52.354Z,34.61
2022-11-07T22:33:55.796Z,33.78
2022-11-07T22:34:57.691Z,29.18
2022-11-07T22:36:01.840Z,30.17
2022-11-07T22:37:03.766Z,31.25
2022-11-07T22:38:05.635Z,28.23
2022-11-07T22:39:07.517Z,33.75
2022-11-07T22:40:10.400Z,28.89
2022-11-07T22:41:16.683Z,34.81
2022-11-07T22:42:23.789Z,32.58
2022-11-07T22:43:25.005Z,31.58
2022-11-07T22:44:26.922Z,32.60
2022-11-07T22:45:29.706Z,31.59
2022-11-07T22:46:31.892Z,29.35
2022-11-07T22:47:33.749Z,30.77
2022-11-07T22:48:36.341Z,29.93
2022-11-07T22:49:38.217Z,30.03
2022-11-07T22:50:40.303Z,30.60
2022-11-07T22:51:42.254Z,31.26
2022-11-07T22:52:44.125Z,32.27
2022-11-07T22:53:48.303Z,31.48
2022-11-07T22:54:50.214Z,31.21
2022-11-07T22:55:52.063Z,30.13
2022-11-07T22:56:54.058Z,31.73
2022-11-07T22:57:55.943Z,31.95
2022-11-07T22:58:58.417Z,33.65
2022-11-07T23:00:11.079Z,32.11
2022-11-07T23:01:05.684Z,31.75
2022-11-07T23:02:07.667Z,30.69
2022-11-07T23:03:09.723Z,31.17
2022-11-07T23:04:15.724Z,32.21
2022-11-07T23:05:17.714Z,33.22
2022-11-07T23:06:21.510Z,30.79
2022-11-07T23:07:23.399Z,34.28
2022-11-07T23:08:25.405Z,34.79
2022-11-07T23:09:27.294Z,33.28
2022-11-07T23:10:29.255Z,31.43
2022-11-07T23:11:50.039Z,28.73
2022-11-07T23:12:38.498Z,33.21
2022-11-07T23:13:41.015Z,31.06
2022-11-07T23:14:42.900Z,31.01
2022-11-07T23:15:44.955Z,29.33
2022-11-07T23:16:53.239Z,32.14
2022-11-07T23:17:55.172Z,34.75
2022-11-07T23:18:57.675Z,30.68
2022-11-07T23:19:59.550Z,31.89
2022-11-07T23:21:01.533Z,36.40
2022-11-07T23:22:03.386Z,35.97
2022-11-07T23:23:05.340Z,35.34
2022-11-07T23:24:07.478Z,34.60
2022-11-07T23:25:09.376Z,37.39
2022-11-07T23:26:14.845Z,33.89
2022-11-07T23:27:19.598Z,31.87
2022-11-07T23:28:23.396Z,29.71
2022-11-07T23:29:25.699Z,31.87
2022-11-07T23:30:27.670Z,30.75
2022-11-07T23:31:29.570Z,33.16
2022-11-07T23:32:31.447Z,30.00
2022-11-07T23:33:34.624Z,32.09
2022-11-07T23:34:36.750Z,33.85
2022-11-07T23:35:38.645Z,33.08
2022-11-07T23:36:42.507Z,29.08
2022-11-07T23:37:44.928Z,31.70
2022-11-07T23:38:47.033Z,33.30
2022-11-07T23:39:48.920Z,33.24
2022-11-07T23:40:50.936Z,34.86
2022-11-07T23:41:52.839Z,38.11
2022-11-07T23:42:54.826Z,35.55
2022-11-07T23:43:56.697Z,31.50
2022-11-07T23:44:58.903Z,33.24
2022-11-07T23:46:03.396Z,30.24
2022-11-07T23:47:05.293Z,33.67
2022-11-07T23:48:10.943Z,32.04
2022-11-07T23:49:14.791Z,29.92
2022-11-07T23:50:17.348Z,33.71
2022-11-07T23:51:19.240Z,27.16
2022-11-07T23:52:21.522Z,28.59
2022-11-07T23:53:23.419Z,34.33
2022-11-07T23:54:25.493Z,29.68
2022-11-07T23:55:27.416Z,26.93
2022-11-07T23:56:30.226Z,25.75
2022-11-07T23:57:34.021Z,28.91
2022-11-07T23:58:35.993Z,29.42
2022-11-07T23:59:37.898Z,29.02
